sensor_id;sensor_type;location;lat;lon;timestamp;P1;durP1;ratioP1;P2;durP2;ratioP2
20802;SDS011;10562;-33.856;151.182;2023-05-21T00:00:00;7.10;;;0.80;;
20802;SDS011;10562;-33.856;151.182;2023-05-21T00:02:36;6.43;;;0.70;;
20802;SDS011;10562;-33.856;151.182;2023-05-21T00:05:08;4.95;;;0.60;;
20802;SDS011;10562;-33.856;151.182;2023-05-21T00:07:40;1.95;;;0.45;;
20802;SDS011;10562;-33.856;151.182;2023-05-21T00:10:14;5.18;;;1.00;;
20802;SDS011;10562;-33.856;151.182;2023-05-21T00:12:44;3.95;;;0.75;;
20802;SDS011;10562;-33.856;151.182;2023-05-21T00:15:15;3.55;;;0.50;;
20802;SDS011;10562;-33.856;151.182;2023-05-21T00:17:46;2.13;;;0.80;;
20802;SDS011;10562;-33.856;151.182;2023-05-21T00:20:17;5.50;;;0.82;;
20802;SDS011;10562;-33.856;151.182;2023-05-21T00:22:48;1.73;;;0.63;;
20802;SDS011;10562;-33.856;151.182;2023-05-21T00:25:21;2.65;;;0.60;;
20802;SDS011;10562;-33.856;151.182;2023-05-21T00:27:51;1.95;;;0.70;;
20802;SDS011;10562;-33.856;151.182;2023-05-21T00:30:24;1.90;;;0.60;;
20802;SDS011;10562;-33.856;151.182;2023-05-21T00:32:54;1.92;;;0.60;;
20802;SDS011;10562;-33.856;151.182;2023-05-21T00:35:28;3.10;;;0.45;;
20802;SDS011;10562;-33.856;151.182;2023-05-21T00:37:59;2.03;;;0.65;;
20802;SDS011;10562;-33.856;151.182;2023-05-21T00:40:32;2.28;;;0.50;;
20802;SDS011;10562;-33.856;151.182;2023-05-21T00:43:06;2.35;;;0.50;;
20802;SDS011;10562;-33.856;151.182;2023-05-21T00:45:37;3.25;;;0.50;;
20802;SDS011;10562;-33.856;151.182;2023-05-21T00:48:09;2.80;;;0.52;;
20802;SDS011;10562;-33.856;151.182;2023-05-21T00:50:41;1.05;;;0.47;;
20802;SDS011;10562;-33.856;151.182;2023-05-21T00:53:12;1.25;;;0.47;;
20802;SDS011;10562;-33.856;151.182;2023-05-21T00:55:46;3.38;;;0.70;;
20802;SDS011;10562;-33.856;151.182;2023-05-21T00:58:21;2.35;;;0.70;;
20802;SDS011;10562;-33.856;151.182;2023-05-21T01:00:52;3.05;;;0.90;;
20802;SDS011;10562;-33.856;151.182;2023-05-21T01:03:22;3.90;;;0.40;;
20802;SDS011;10562;-33.856;151.182;2023-05-21T01:05:54;0.93;;;0.45;;
20802;SDS011;10562;-33.856;151.182;2023-05-21T01:08:26;2.05;;;0.40;;
20802;SDS011;10562;-33.856;151.182;2023-05-21T01:10:59;0.93;;;0.47;;
20802;SDS011;10562;-33.856;151.182;2023-05-21T01:13:31;1.48;;;0.60;;
20802;SDS011;10562;-33.856;151.182;2023-05-21T01:16:04;2.30;;;0.55;;
20802;SDS011;10562;-33.856;151.182;2023-05-21T01:18:36;1.08;;;0.40;;
20802;SDS011;10562;-33.856;151.182;2023-05-21T01:21:10;0.40;;;0.40;;
20802;SDS011;10562;-33.856;151.182;2023-05-21T01:23:44;1.48;;;0.55;;
20802;SDS011;10562;-33.856;151.182;2023-05-21T01:26:15;1.42;;;0.50;;
20802;SDS011;10562;-33.856;151.182;2023-05-21T01:28:46;1.73;;;0.47;;
20802;SDS011;10562;-33.856;151.182;2023-05-21T01:31:18;0.70;;;0.40;;
20802;SDS011;10562;-33.856;151.182;2023-05-21T01:33:53;1.70;;;0.40;;
20802;SDS011;10562;-33.856;151.182;2023-05-21T01:36:31;1.20;;;0.40;;
20802;SDS011;10562;-33.856;151.182;2023-05-21T01:39:11;0.85;;;0.50;;
20802;SDS011;10562;-33.856;151.182;2023-05-21T01:41:48;1.15;;;0.57;;
20802;SDS011;10562;-33.856;151.182;2023-05-21T01:44:21;0.85;;;0.38;;
20802;SDS011;10562;-33.856;151.182;2023-05-21T01:46:53;0.60;;;0.32;;
20802;SDS011;10562;-33.856;151.182;2023-05-21T01:49:26;2.95;;;0.45;;
20802;SDS011;10562;-33.856;151.182;2023-05-21T01:51:58;0.50;;;0.30;;
20802;SDS011;10562;-33.856;151.182;2023-05-21T01:54:31;1.27;;;0.60;;
20802;SDS011;10562;-33.856;151.182;2023-05-21T01:57:02;0.80;;;0.40;;
20802;SDS011;10562;-33.856;151.182;2023-05-21T01:59:33;3.58;;;0.40;;
20802;SDS011;10562;-33.856;151.182;2023-05-21T02:02:04;2.13;;;0.40;;
20802;SDS011;10562;-33.856;151.182;2023-05-21T02:04:35;0.45;;;0.40;;
20802;SDS011;10562;-33.856;151.182;2023-05-21T02:07:06;0.65;;;0.40;;
20802;SDS011;10562;-33.856;151.182;2023-05-21T02:09:41;1.38;;;0.30;;
20802;SDS011;10562;-33.856;151.182;2023-05-21T02:12:12;0.50;;;0.43;;
20802;SDS011;10562;-33.856;151.182;2023-05-21T02:14:43;0.98;;;0.35;;
20802;SDS011;10562;-33.856;151.182;2023-05-21T02:17:15;2.90;;;0.82;;
20802;SDS011;10562;-33.856;151.182;2023-05-21T02:19:46;1.95;;;1.15;;
20802;SDS011;10562;-33.856;151.182;2023-05-21T02:22:18;2.17;;;0.70;;
20802;SDS011;10562;-33.856;151.182;2023-05-21T02:24:50;1.92;;;0.55;;
20802;SDS011;10562;-33.856;151.182;2023-05-21T02:27:21;1.45;;;0.40;;
20802;SDS011;10562;-33.856;151.182;2023-05-21T02:29:54;0.80;;;0.40;;
20802;SDS011;10562;-33.856;151.182;2023-05-21T02:32:24;1.20;;;0.50;;
20802;SDS011;10562;-33.856;151.182;2023-05-21T02:34:56;2.40;;;0.47;;
20802;SDS011;10562;-33.856;151.182;2023-05-21T02:37:29;2.67;;;0.68;;
20802;SDS011;10562;-33.856;151.182;2023-05-21T02:40:02;3.50;;;0.57;;
20802;SDS011;10562;-33.856;151.182;2023-05-21T02:42:35;1.13;;;0.50;;
20802;SDS011;10562;-33.856;151.182;2023-05-21T02:45:06;0.70;;;0.50;;
20802;SDS011;10562;-33.856;151.182;2023-05-21T02:47:38;0.95;;;0.50;;
20802;SDS011;10562;-33.856;151.182;2023-05-21T02:50:09;1.17;;;0.70;;
20802;SDS011;10562;-33.856;151.182;2023-05-21T02:52:41;0.68;;;0.60;;
20802;SDS011;10562;-33.856;151.182;2023-05-21T02:55:16;2.28;;;0.50;;
20802;SDS011;10562;-33.856;151.182;2023-05-21T02:57:47;0.70;;;0.50;;
20802;SDS011;10562;-33.856;151.182;2023-05-21T03:00:20;0.88;;;0.60;;
20802;SDS011;10562;-33.856;151.182;2023-05-21T03:02:52;0.80;;;0.47;;
20802;SDS011;10562;-33.856;151.182;2023-05-21T03:05:23;2.35;;;0.50;;
20802;SDS011;10562;-33.856;151.182;2023-05-21T03:07:55;2.45;;;0.40;;
20802;SDS011;10562;-33.856;151.182;2023-05-21T03:10:28;2.25;;;0.50;;
20802;SDS011;10562;-33.856;151.182;2023-05-21T03:13:01;0.60;;;0.40;;
20802;SDS011;10562;-33.856;151.182;2023-05-21T03:15:33;2.15;;;0.40;;
20802;SDS011;10562;-33.856;151.182;2023-05-21T03:18:04;0.40;;;0.30;;
20802;SDS011;10562;-33.856;151.182;2023-05-21T03:20:35;1.05;;;0.40;;
20802;SDS011;10562;-33.856;151.182;2023-05-21T03:23:08;1.75;;;0.40;;
20802;SDS011;10562;-33.856;151.182;2023-05-21T03:25:41;0.77;;;0.40;;
20802;SDS011;10562;-33.856;151.182;2023-05-21T03:28:13;2.45;;;0.40;;
20802;SDS011;10562;-33.856;151.182;2023-05-21T03:30:44;1.80;;;0.52;;
20802;SDS011;10562;-33.856;151.182;2023-05-21T03:33:17;1.60;;;0.38;;
20802;SDS011;10562;-33.856;151.182;2023-05-21T03:35:48;2.00;;;0.50;;
20802;SDS011;10562;-33.856;151.182;2023-05-21T03:38:19;0.85;;;0.30;;
20802;SDS011;10562;-33.856;151.182;2023-05-21T03:40:52;2.25;;;0.45;;
20802;SDS011;10562;-33.856;151.182;2023-05-21T03:43:23;2.65;;;0.63;;
20802;SDS011;10562;-33.856;151.182;2023-05-21T03:45:54;0.65;;;0.50;;
20802;SDS011;10562;-33.856;151.182;2023-05-21T03:48:25;7.75;;;0.65;;
20802;SDS011;10562;-33.856;151.182;2023-05-21T03:50:55;1.88;;;0.40;;
20802;SDS011;10562;-33.856;151.182;2023-05-21T03:53:26;0.90;;;0.50;;
20802;SDS011;10562;-33.856;151.182;2023-05-21T03:55:59;1.42;;;0.70;;
20802;SDS011;10562;-33.856;151.182;2023-05-21T03:58:30;2.47;;;0.40;;
20802;SDS011;10562;-33.856;151.182;2023-05-21T04:01:00;2.92;;;0.38;;
20802;SDS011;10562;-33.856;151.182;2023-05-21T04:03:33;1.58;;;0.60;;
20802;SDS011;10562;-33.856;151.182;2023-05-21T04:06:04;3.67;;;0.50;;
20802;SDS011;10562;-33.856;151.182;2023-05-21T04:08:35;1.52;;;0.60;;
20802;SDS011;10562;-33.856;151.182;2023-05-21T04:11:08;1.98;;;0.38;;
20802;SDS011;10562;-33.856;151.182;2023-05-21T04:13:39;0.30;;;0.30;;
20802;SDS011;10562;-33.856;151.182;2023-05-21T04:16:09;0.82;;;0.20;;
20802;SDS011;10562;-33.856;151.182;2023-05-21T04:18:44;0.40;;;0.28;;
20802;SDS011;10562;-33.856;151.182;2023-05-21T04:21:15;1.65;;;0.60;;
20802;SDS011;10562;-33.856;151.182;2023-05-21T04:23:45;0.93;;;0.45;;
20802;SDS011;10562;-33.856;151.182;2023-05-21T04:26:21;0.60;;;0.45;;
20802;SDS011;10562;-33.856;151.182;2023-05-21T04:28:53;0.20;;;0.20;;
20802;SDS011;10562;-33.856;151.182;2023-05-21T04:31:24;0.43;;;0.40;;
20802;SDS011;10562;-33.856;151.182;2023-05-21T04:33:55;0.55;;;0.45;;
20802;SDS011;10562;-33.856;151.182;2023-05-21T04:36:26;0.30;;;0.30;;
20802;SDS011;10562;-33.856;151.182;2023-05-21T04:38:57;1.90;;;0.40;;
20802;SDS011;10562;-33.856;151.182;2023-05-21T04:41:30;0.60;;;0.40;;
20802;SDS011;10562;-33.856;151.182;2023-05-21T04:44:01;0.60;;;0.40;;
20802;SDS011;10562;-33.856;151.182;2023-05-21T04:46:32;2.30;;;0.50;;
20802;SDS011;10562;-33.856;151.182;2023-05-21T04:49:03;1.35;;;0.60;;
20802;SDS011;10562;-33.856;151.182;2023-05-21T04:51:35;0.28;;;0.28;;
20802;SDS011;10562;-33.856;151.182;2023-05-21T04:54:06;0.68;;;0.50;;
20802;SDS011;10562;-33.856;151.182;2023-05-21T04:56:38;0.73;;;0.60;;
20802;SDS011;10562;-33.856;151.182;2023-05-21T04:59:09;1.83;;;0.40;;
20802;SDS011;10562;-33.856;151.182;2023-05-21T05:01:40;3.67;;;0.50;;
20802;SDS011;10562;-33.856;151.182;2023-05-21T05:04:11;3.25;;;0.43;;
20802;SDS011;10562;-33.856;151.182;2023-05-21T05:06:42;0.98;;;0.30;;
20802;SDS011;10562;-33.856;151.182;2023-05-21T05:09:12;0.65;;;0.28;;
20802;SDS011;10562;-33.856;151.182;2023-05-21T05:11:45;1.70;;;0.40;;
20802;SDS011;10562;-33.856;151.182;2023-05-21T05:14:16;0.57;;;0.30;;
20802;SDS011;10562;-33.856;151.182;2023-05-21T05:16:47;2.42;;;0.30;;
20802;SDS011;10562;-33.856;151.182;2023-05-21T05:19:17;1.33;;;0.60;;
20802;SDS011;10562;-33.856;151.182;2023-05-21T05:21:48;2.35;;;0.50;;
20802;SDS011;10562;-33.856;151.182;2023-05-21T05:24:19;0.95;;;0.70;;
20802;SDS011;10562;-33.856;151.182;2023-05-21T05:26:52;1.23;;;0.47;;
20802;SDS011;10562;-33.856;151.182;2023-05-21T05:29:23;0.57;;;0.40;;
20802;SDS011;10562;-33.856;151.182;2023-05-21T05:31:54;1.35;;;0.30;;
20802;SDS011;10562;-33.856;151.182;2023-05-21T05:34:25;2.80;;;0.45;;
20802;SDS011;10562;-33.856;151.182;2023-05-21T05:36:55;3.08;;;0.45;;
20802;SDS011;10562;-33.856;151.182;2023-05-21T05:39:28;0.40;;;0.40;;
20802;SDS011;10562;-33.856;151.182;2023-05-21T05:42:00;2.78;;;0.40;;
20802;SDS011;10562;-33.856;151.182;2023-05-21T05:44:31;2.08;;;0.52;;
20802;SDS011;10562;-33.856;151.182;2023-05-21T05:47:02;0.63;;;0.47;;
20802;SDS011;10562;-33.856;151.182;2023-05-21T05:49:36;1.08;;;0.50;;
20802;SDS011;10562;-33.856;151.182;2023-05-21T05:52:06;0.85;;;0.43;;
20802;SDS011;10562;-33.856;151.182;2023-05-21T05:54:37;2.92;;;0.47;;
20802;SDS011;10562;-33.856;151.182;2023-05-21T05:57:12;2.95;;;0.40;;
20802;SDS011;10562;-33.856;151.182;2023-05-21T05:59:44;0.73;;;0.50;;
20802;SDS011;10562;-33.856;151.182;2023-05-21T06:02:15;1.67;;;0.50;;
20802;SDS011;10562;-33.856;151.182;2023-05-21T06:04:46;1.98;;;0.40;;
20802;SDS011;10562;-33.856;151.182;2023-05-21T06:07:17;1.17;;;0.40;;
20802;SDS011;10562;-33.856;151.182;2023-05-21T06:09:48;2.47;;;0.50;;
20802;SDS011;10562;-33.856;151.182;2023-05-21T06:12:20;2.25;;;0.40;;
20802;SDS011;10562;-33.856;151.182;2023-05-21T06:14:51;0.57;;;0.40;;
20802;SDS011;10562;-33.856;151.182;2023-05-21T06:17:22;0.60;;;0.40;;
20802;SDS011;10562;-33.856;151.182;2023-05-21T06:19:54;0.47;;;0.38;;
20802;SDS011;10562;-33.856;151.182;2023-05-21T06:22:26;2.95;;;0.47;;
20802;SDS011;10562;-33.856;151.182;2023-05-21T06:24:57;3.03;;;0.43;;
20802;SDS011;10562;-33.856;151.182;2023-05-21T06:27:30;1.55;;;0.50;;
20802;SDS011;10562;-33.856;151.182;2023-05-21T06:30:00;1.67;;;0.40;;
20802;SDS011;10562;-33.856;151.182;2023-05-21T06:32:31;1.92;;;0.45;;
20802;SDS011;10562;-33.856;151.182;2023-05-21T06:35:02;1.48;;;0.60;;
20802;SDS011;10562;-33.856;151.182;2023-05-21T06:37:33;2.10;;;0.50;;
20802;SDS011;10562;-33.856;151.182;2023-05-21T06:40:05;1.75;;;0.70;;
20802;SDS011;10562;-33.856;151.182;2023-05-21T06:42:38;2.65;;;0.85;;
20802;SDS011;10562;-33.856;151.182;2023-05-21T06:45:09;1.00;;;0.50;;
20802;SDS011;10562;-33.856;151.182;2023-05-21T06:47:42;1.60;;;0.73;;
20802;SDS011;10562;-33.856;151.182;2023-05-21T06:50:13;4.22;;;0.75;;
20802;SDS011;10562;-33.856;151.182;2023-05-21T06:52:45;1.45;;;0.70;;
20802;SDS011;10562;-33.856;151.182;2023-05-21T06:55:16;1.83;;;0.80;;
20802;SDS011;10562;-33.856;151.182;2023-05-21T06:57:49;2.55;;;0.60;;
20802;SDS011;10562;-33.856;151.182;2023-05-21T07:00:19;1.90;;;0.60;;
20802;SDS011;10562;-33.856;151.182;2023-05-21T07:02:50;2.75;;;0.80;;
20802;SDS011;10562;-33.856;151.182;2023-05-21T07:05:21;1.23;;;0.85;;
20802;SDS011;10562;-33.856;151.182;2023-05-21T07:07:55;1.60;;;0.88;;
20802;SDS011;10562;-33.856;151.182;2023-05-21T07:10:25;3.22;;;1.10;;
20802;SDS011;10562;-33.856;151.182;2023-05-21T07:13:00;2.08;;;1.17;;
20802;SDS011;10562;-33.856;151.182;2023-05-21T07:15:30;2.70;;;0.80;;
20802;SDS011;10562;-33.856;151.182;2023-05-21T07:18:01;1.58;;;0.88;;
20802;SDS011;10562;-33.856;151.182;2023-05-21T07:20:32;1.33;;;0.70;;
20802;SDS011;10562;-33.856;151.182;2023-05-21T07:23:06;2.97;;;0.90;;
20802;SDS011;10562;-33.856;151.182;2023-05-21T07:25:37;1.50;;;0.95;;
20802;SDS011;10562;-33.856;151.182;2023-05-21T07:28:13;3.83;;;1.38;;
20802;SDS011;10562;-33.856;151.182;2023-05-21T07:30:48;1.73;;;1.00;;
20802;SDS011;10562;-33.856;151.182;2023-05-21T07:33:19;1.60;;;1.00;;
20802;SDS011;10562;-33.856;151.182;2023-05-21T07:35:49;0.77;;;0.73;;
20802;SDS011;10562;-33.856;151.182;2023-05-21T07:38:21;1.67;;;0.88;;
20802;SDS011;10562;-33.856;151.182;2023-05-21T07:40:52;3.17;;;0.93;;
20802;SDS011;10562;-33.856;151.182;2023-05-21T07:43:24;1.48;;;0.98;;
20802;SDS011;10562;-33.856;151.182;2023-05-21T07:45:55;3.20;;;1.25;;
20802;SDS011;10562;-33.856;151.182;2023-05-21T07:48:26;4.00;;;1.13;;
20802;SDS011;10562;-33.856;151.182;2023-05-21T07:51:01;5.07;;;1.00;;
20802;SDS011;10562;-33.856;151.182;2023-05-21T07:53:32;2.35;;;1.00;;
20802;SDS011;10562;-33.856;151.182;2023-05-21T07:56:03;2.72;;;1.00;;
20802;SDS011;10562;-33.856;151.182;2023-05-21T07:58:36;1.70;;;1.00;;
20802;SDS011;10562;-33.856;151.182;2023-05-21T08:01:09;3.08;;;0.90;;
20802;SDS011;10562;-33.856;151.182;2023-05-21T08:03:40;2.40;;;1.00;;
20802;SDS011;10562;-33.856;151.182;2023-05-21T08:06:11;4.70;;;1.40;;
20802;SDS011;10562;-33.856;151.182;2023-05-21T08:08:42;2.08;;;1.20;;
20802;SDS011;10562;-33.856;151.182;2023-05-21T08:11:12;5.20;;;1.60;;
20802;SDS011;10562;-33.856;151.182;2023-05-21T08:13:45;4.60;;;1.50;;
20802;SDS011;10562;-33.856;151.182;2023-05-21T08:16:17;3.60;;;1.65;;
20802;SDS011;10562;-33.856;151.182;2023-05-21T08:18:48;2.17;;;1.40;;
20802;SDS011;10562;-33.856;151.182;2023-05-21T08:21:19;3.67;;;1.80;;
20802;SDS011;10562;-33.856;151.182;2023-05-21T08:23:51;2.85;;;1.48;;
20802;SDS011;10562;-33.856;151.182;2023-05-21T08:26:22;3.30;;;1.60;;
20802;SDS011;10562;-33.856;151.182;2023-05-21T08:28:55;5.55;;;1.90;;
20802;SDS011;10562;-33.856;151.182;2023-05-21T08:31:26;6.13;;;2.78;;
20802;SDS011;10562;-33.856;151.182;2023-05-21T08:33:57;6.45;;;3.03;;
20802;SDS011;10562;-33.856;151.182;2023-05-21T08:36:28;6.43;;;2.78;;
20802;SDS011;10562;-33.856;151.182;2023-05-21T08:38:59;6.13;;;2.90;;
20802;SDS011;10562;-33.856;151.182;2023-05-21T08:41:30;5.45;;;2.55;;
20802;SDS011;10562;-33.856;151.182;2023-05-21T08:44:07;3.92;;;2.33;;
20802;SDS011;10562;-33.856;151.182;2023-05-21T08:46:41;5.45;;;2.20;;
20802;SDS011;10562;-33.856;151.182;2023-05-21T08:49:18;4.32;;;2.10;;
20802;SDS011;10562;-33.856;151.182;2023-05-21T08:51:55;3.97;;;1.90;;
20802;SDS011;10562;-33.856;151.182;2023-05-21T08:54:27;3.67;;;1.92;;
20802;SDS011;10562;-33.856;151.182;2023-05-21T08:56:58;4.30;;;2.33;;
20802;SDS011;10562;-33.856;151.182;2023-05-21T08:59:33;4.65;;;2.10;;
20802;SDS011;10562;-33.856;151.182;2023-05-21T09:02:09;5.32;;;2.30;;
20802;SDS011;10562;-33.856;151.182;2023-05-21T09:04:43;6.82;;;2.55;;
20802;SDS011;10562;-33.856;151.182;2023-05-21T09:07:18;6.95;;;2.40;;
20802;SDS011;10562;-33.856;151.182;2023-05-21T09:09:51;3.95;;;2.08;;
20802;SDS011;10562;-33.856;151.182;2023-05-21T09:12:30;4.03;;;1.80;;
20802;SDS011;10562;-33.856;151.182;2023-05-21T09:15:05;5.45;;;1.92;;
20802;SDS011;10562;-33.856;151.182;2023-05-21T09:17:39;6.00;;;2.20;;
20802;SDS011;10562;-33.856;151.182;2023-05-21T09:20:10;4.38;;;1.90;;
20802;SDS011;10562;-33.856;151.182;2023-05-21T09:22:43;4.22;;;2.00;;
20802;SDS011;10562;-33.856;151.182;2023-05-21T09:25:15;4.60;;;2.10;;
20802;SDS011;10562;-33.856;151.182;2023-05-21T09:27:46;4.50;;;2.10;;
20802;SDS011;10562;-33.856;151.182;2023-05-21T09:30:19;3.97;;;2.10;;
20802;SDS011;10562;-33.856;151.182;2023-05-21T09:32:51;3.50;;;1.90;;
20802;SDS011;10562;-33.856;151.182;2023-05-21T09:35:25;4.40;;;1.88;;
20802;SDS011;10562;-33.856;151.182;2023-05-21T09:37:56;4.38;;;2.00;;
20802;SDS011;10562;-33.856;151.182;2023-05-21T09:40:28;5.28;;;2.20;;
20802;SDS011;10562;-33.856;151.182;2023-05-21T09:42:59;3.92;;;1.83;;
20802;SDS011;10562;-33.856;151.182;2023-05-21T09:45:32;4.72;;;1.75;;
20802;SDS011;10562;-33.856;151.182;2023-05-21T09:48:03;2.85;;;1.30;;
20802;SDS011;10562;-33.856;151.182;2023-05-21T09:50:34;4.93;;;1.85;;
20802;SDS011;10562;-33.856;151.182;2023-05-21T09:53:10;5.82;;;2.10;;
20802;SDS011;10562;-33.856;151.182;2023-05-21T09:55:41;2.88;;;1.80;;
20802;SDS011;10562;-33.856;151.182;2023-05-21T09:58:13;2.85;;;1.70;;
20802;SDS011;10562;-33.856;151.182;2023-05-21T10:00:46;5.03;;;1.80;;
20802;SDS011;10562;-33.856;151.182;2023-05-21T10:03:17;3.50;;;1.77;;
20802;SDS011;10562;-33.856;151.182;2023-05-21T10:05:54;3.67;;;1.80;;
20802;SDS011;10562;-33.856;151.182;2023-05-21T10:08:26;6.97;;;2.22;;
20802;SDS011;10562;-33.856;151.182;2023-05-21T10:11:02;5.35;;;2.33;;
20802;SDS011;10562;-33.856;151.182;2023-05-21T10:13:34;4.63;;;2.38;;
20802;SDS011;10562;-33.856;151.182;2023-05-21T10:16:11;5.72;;;2.70;;
20802;SDS011;10562;-33.856;151.182;2023-05-21T10:18:43;5.70;;;2.60;;
20802;SDS011;10562;-33.856;151.182;2023-05-21T10:21:15;5.38;;;2.13;;
20802;SDS011;10562;-33.856;151.182;2023-05-21T10:23:46;7.03;;;2.20;;
20802;SDS011;10562;-33.856;151.182;2023-05-21T10:26:19;4.93;;;2.10;;
20802;SDS011;10562;-33.856;151.182;2023-05-21T10:28:50;3.83;;;2.08;;
20802;SDS011;10562;-33.856;151.182;2023-05-21T10:31:25;5.60;;;2.00;;
20802;SDS011;10562;-33.856;151.182;2023-05-21T10:33:58;3.28;;;1.80;;
20802;SDS011;10562;-33.856;151.182;2023-05-21T10:36:32;4.22;;;1.83;;
20802;SDS011;10562;-33.856;151.182;2023-05-21T10:39:05;4.88;;;1.80;;
20802;SDS011;10562;-33.856;151.182;2023-05-21T10:41:38;5.43;;;2.10;;
20802;SDS011;10562;-33.856;151.182;2023-05-21T10:44:16;3.28;;;1.40;;
20802;SDS011;10562;-33.856;151.182;2023-05-21T10:50:06;3.95;;;1.80;;
20802;SDS011;10562;-33.856;151.182;2023-05-21T10:52:59;3.67;;;1.50;;
20802;SDS011;10562;-33.856;151.182;2023-05-21T10:55:41;3.78;;;1.58;;
20802;SDS011;10562;-33.856;151.182;2023-05-21T10:58:25;2.60;;;1.30;;
20802;SDS011;10562;-33.856;151.182;2023-05-21T11:01:13;2.90;;;1.15;;
20802;SDS011;10562;-33.856;151.182;2023-05-21T11:03:46;3.22;;;1.20;;
20802;SDS011;10562;-33.856;151.182;2023-05-21T11:06:28;2.55;;;1.02;;
20802;SDS011;10562;-33.856;151.182;2023-05-21T11:09:00;2.38;;;1.15;;
20802;SDS011;10562;-33.856;151.182;2023-05-21T11:11:41;2.85;;;1.40;;
20802;SDS011;10562;-33.856;151.182;2023-05-21T11:14:26;3.72;;;1.30;;
20802;SDS011;10562;-33.856;151.182;2023-05-21T11:17:00;2.03;;;1.17;;
20802;SDS011;10562;-33.856;151.182;2023-05-21T11:19:35;2.00;;;1.25;;
20802;SDS011;10562;-33.856;151.182;2023-05-21T11:22:21;2.45;;;1.30;;
20802;SDS011;10562;-33.856;151.182;2023-05-21T11:24:53;2.47;;;0.90;;
20802;SDS011;10562;-33.856;151.182;2023-05-21T11:27:31;4.70;;;1.20;;
20802;SDS011;10562;-33.856;151.182;2023-05-21T11:30:04;3.72;;;1.00;;
20802;SDS011;10562;-33.856;151.182;2023-05-21T11:32:38;2.90;;;1.02;;
20802;SDS011;10562;-33.856;151.182;2023-05-21T11:35:29;4.72;;;1.17;;
20802;SDS011;10562;-33.856;151.182;2023-05-21T11:38:06;3.15;;;0.93;;
20802;SDS011;10562;-33.856;151.182;2023-05-21T11:40:41;1.75;;;0.90;;
20802;SDS011;10562;-33.856;151.182;2023-05-21T11:43:20;2.65;;;1.05;;
20802;SDS011;10562;-33.856;151.182;2023-05-21T11:45:51;1.90;;;0.90;;
20802;SDS011;10562;-33.856;151.182;2023-05-21T11:48:22;1.33;;;0.98;;
20802;SDS011;10562;-33.856;151.182;2023-05-21T11:50:54;2.22;;;0.90;;
20802;SDS011;10562;-33.856;151.182;2023-05-21T11:53:27;1.60;;;0.73;;
20802;SDS011;10562;-33.856;151.182;2023-05-21T11:55:59;1.67;;;0.80;;
20802;SDS011;10562;-33.856;151.182;2023-05-21T11:58:34;2.45;;;0.93;;
20802;SDS011;10562;-33.856;151.182;2023-05-21T12:01:20;3.35;;;1.00;;
20802;SDS011;10562;-33.856;151.182;2023-05-21T12:03:51;2.75;;;0.90;;
20802;SDS011;10562;-33.856;151.182;2023-05-21T12:06:25;1.10;;;0.77;;
20802;SDS011;10562;-33.856;151.182;2023-05-21T12:08:58;2.78;;;0.70;;
20802;SDS011;10562;-33.856;151.182;2023-05-21T12:11:29;1.50;;;0.75;;
20802;SDS011;10562;-33.856;151.182;2023-05-21T12:14:01;2.42;;;0.90;;
20802;SDS011;10562;-33.856;151.182;2023-05-21T12:16:34;3.20;;;0.80;;
20802;SDS011;10562;-33.856;151.182;2023-05-21T12:19:05;3.17;;;0.95;;
20802;SDS011;10562;-33.856;151.182;2023-05-21T12:21:36;4.53;;;0.82;;
20802;SDS011;10562;-33.856;151.182;2023-05-21T12:24:09;2.65;;;1.00;;
20802;SDS011;10562;-33.856;151.182;2023-05-21T12:26:40;2.08;;;0.80;;
20802;SDS011;10562;-33.856;151.182;2023-05-21T12:29:11;1.92;;;0.80;;
20802;SDS011;10562;-33.856;151.182;2023-05-21T12:31:46;1.67;;;0.80;;
20802;SDS011;10562;-33.856;151.182;2023-05-21T12:37:06;4.30;;;0.90;;
20802;SDS011;10562;-33.856;151.182;2023-05-21T12:39:39;2.80;;;0.80;;
20802;SDS011;10562;-33.856;151.182;2023-05-21T12:42:11;2.70;;;0.90;;
20802;SDS011;10562;-33.856;151.182;2023-05-21T12:44:43;3.17;;;0.90;;
20802;SDS011;10562;-33.856;151.182;2023-05-21T12:47:15;2.30;;;0.90;;
20802;SDS011;10562;-33.856;151.182;2023-05-21T12:49:46;2.33;;;1.10;;
20802;SDS011;10562;-33.856;151.182;2023-05-21T12:52:17;3.08;;;0.90;;
20802;SDS011;10562;-33.856;151.182;2023-05-21T12:54:51;3.55;;;1.08;;
20802;SDS011;10562;-33.856;151.182;2023-05-21T12:57:23;2.70;;;1.00;;
20802;SDS011;10562;-33.856;151.182;2023-05-21T12:59:54;2.28;;;1.05;;
20802;SDS011;10562;-33.856;151.182;2023-05-21T13:02:26;1.42;;;0.80;;
20802;SDS011;10562;-33.856;151.182;2023-05-21T13:04:58;2.47;;;1.00;;
20802;SDS011;10562;-33.856;151.182;2023-05-21T13:07:30;3.33;;;1.08;;
20802;SDS011;10562;-33.856;151.182;2023-05-21T13:10:04;2.13;;;1.20;;
20802;SDS011;10562;-33.856;151.182;2023-05-21T13:12:35;3.22;;;1.05;;
20802;SDS011;10562;-33.856;151.182;2023-05-21T13:15:06;2.75;;;1.20;;
20802;SDS011;10562;-33.856;151.182;2023-05-21T13:17:38;3.08;;;1.02;;
20802;SDS011;10562;-33.856;151.182;2023-05-21T13:20:09;3.58;;;1.30;;
20802;SDS011;10562;-33.856;151.182;2023-05-21T13:22:40;3.28;;;1.05;;
20802;SDS011;10562;-33.856;151.182;2023-05-21T13:25:15;4.07;;;1.20;;
20802;SDS011;10562;-33.856;151.182;2023-05-21T13:27:47;1.55;;;1.02;;
20802;SDS011;10562;-33.856;151.182;2023-05-21T13:30:19;1.85;;;0.98;;
20802;SDS011;10562;-33.856;151.182;2023-05-21T13:32:50;2.78;;;1.23;;
20802;SDS011;10562;-33.856;151.182;2023-05-21T13:35:21;3.85;;;0.93;;
20802;SDS011;10562;-33.856;151.182;2023-05-21T13:37:52;2.03;;;1.00;;
20802;SDS011;10562;-33.856;151.182;2023-05-21T13:40:25;2.92;;;0.75;;
20802;SDS011;10562;-33.856;151.182;2023-05-21T13:42:56;2.65;;;0.90;;
20802;SDS011;10562;-33.856;151.182;2023-05-21T13:45:26;2.33;;;1.08;;
20802;SDS011;10562;-33.856;151.182;2023-05-21T13:47:57;1.80;;;0.90;;
20802;SDS011;10562;-33.856;151.182;2023-05-21T13:50:28;1.60;;;0.80;;
20802;SDS011;10562;-33.856;151.182;2023-05-21T13:52:59;5.93;;;1.02;;
20802;SDS011;10562;-33.856;151.182;2023-05-21T13:55:32;2.45;;;1.00;;
20802;SDS011;10562;-33.856;151.182;2023-05-21T13:58:02;2.40;;;1.00;;
20802;SDS011;10562;-33.856;151.182;2023-05-21T14:00:33;3.05;;;0.90;;
20802;SDS011;10562;-33.856;151.182;2023-05-21T14:03:06;2.40;;;1.00;;
20802;SDS011;10562;-33.856;151.182;2023-05-21T14:05:37;3.53;;;0.95;;
20802;SDS011;10562;-33.856;151.182;2023-05-21T14:08:07;1.08;;;0.75;;
20802;SDS011;10562;-33.856;151.182;2023-05-21T14:10:40;2.38;;;0.90;;
20802;SDS011;10562;-33.856;151.182;2023-05-21T14:13:12;1.95;;;0.88;;
20802;SDS011;10562;-33.856;151.182;2023-05-21T14:15:43;2.50;;;0.82;;
20802;SDS011;10562;-33.856;151.182;2023-05-21T14:18:14;1.58;;;0.75;;
20802;SDS011;10562;-33.856;151.182;2023-05-21T14:20:45;3.55;;;0.90;;
20802;SDS011;10562;-33.856;151.182;2023-05-21T14:23:16;1.48;;;0.90;;
20802;SDS011;10562;-33.856;151.182;2023-05-21T14:25:49;1.55;;;0.80;;
20802;SDS011;10562;-33.856;151.182;2023-05-21T14:28:19;1.85;;;0.88;;
20802;SDS011;10562;-33.856;151.182;2023-05-21T14:30:50;3.28;;;1.10;;
20802;SDS011;10562;-33.856;151.182;2023-05-21T14:33:21;2.00;;;0.80;;
20802;SDS011;10562;-33.856;151.182;2023-05-21T14:35:52;3.47;;;0.80;;
20802;SDS011;10562;-33.856;151.182;2023-05-21T14:38:23;3.65;;;0.90;;
20802;SDS011;10562;-33.856;151.182;2023-05-21T14:40:56;1.90;;;0.85;;
20802;SDS011;10562;-33.856;151.182;2023-05-21T14:43:27;1.23;;;0.60;;